sensor_id;sensor_type;location;lat;lon;timestamp;temperature;humidity
7498;DHT22;3790;48.806;9.140;2023-02-18T00:00:24;11.90;99.90
7498;DHT22;3790;48.806;9.140;2023-02-18T00:05:24;11.90;99.90
7498;DHT22;3790;48.806;9.140;2023-02-18T00:10:25;11.80;99.90
7498;DHT22;3790;48.806;9.140;2023-02-18T00:15:26;11.90;99.90
7498;DHT22;3790;48.806;9.140;2023-02-18T00:20:26;11.90;99.90
7498;DHT22;3790;48.806;9.140;2023-02-18T00:25:27;11.90;99.90
7498;DHT22;3790;48.806;9.140;2023-02-18T00:30:27;11.90;99.90
7498;DHT22;3790;48.806;9.140;2023-02-18T00:35:30;11.90;99.90
7498;DHT22;3790;48.806;9.140;2023-02-18T00:40:31;11.90;99.90
7498;DHT22;3790;48.806;9.140;2023-02-18T00:45:32;11.90;99.90
7498;DHT22;3790;48.806;9.140;2023-02-18T00:50:32;11.90;99.90
7498;DHT22;3790;48.806;9.140;2023-02-18T00:55:43;11.80;99.90
7498;DHT22;3790;48.806;9.140;2023-02-18T01:00:45;11.90;99.90
7498;DHT22;3790;48.806;9.140;2023-02-18T01:05:45;11.80;99.90
7498;DHT22;3790;48.806;9.140;2023-02-18T01:10:51;11.90;99.90
7498;DHT22;3790;48.806;9.140;2023-02-18T01:15:52;11.80;99.90
7498;DHT22;3790;48.806;9.140;2023-02-18T01:20:52;11.80;99.90
7498;DHT22;3790;48.806;9.140;2023-02-18T01:25:53;11.60;99.90
7498;DHT22;3790;48.806;9.140;2023-02-18T01:30:55;11.50;99.90
7498;DHT22;3790;48.806;9.140;2023-02-18T01:35:55;11.30;99.90
7498;DHT22;3790;48.806;9.140;2023-02-18T01:40:56;11.20;99.90
7498;DHT22;3790;48.806;9.140;2023-02-18T01:51:16;10.90;99.90
7498;DHT22;3790;48.806;9.140;2023-02-18T02:01:41;11.10;99.90
7498;DHT22;3790;48.806;9.140;2023-02-18T02:06:42;11.30;99.90
7498;DHT22;3790;48.806;9.140;2023-02-18T02:11:55;11.40;99.90
7498;DHT22;3790;48.806;9.140;2023-02-18T02:17:13;11.40;99.90
7498;DHT22;3790;48.806;9.140;2023-02-18T02:22:37;11.40;99.90
7498;DHT22;3790;48.806;9.140;2023-02-18T02:28:04;11.50;99.90
7498;DHT22;3790;48.806;9.140;2023-02-18T02:44:30;11.50;99.90
7498;DHT22;3790;48.806;9.140;2023-02-18T02:50:03;11.60;99.90
7498;DHT22;3790;48.806;9.140;2023-02-18T02:55:08;11.60;99.90
7498;DHT22;3790;48.806;9.140;2023-02-18T03:00:10;11.60;99.90
7498;DHT22;3790;48.806;9.140;2023-02-18T03:05:54;11.60;99.90
7498;DHT22;3790;48.806;9.140;2023-02-18T03:15:57;11.50;99.90
7498;DHT22;3790;48.806;9.140;2023-02-18T03:21:09;11.40;99.90
7498;DHT22;3790;48.806;9.140;2023-02-18T03:26:10;11.40;99.90
7498;DHT22;3790;48.806;9.140;2023-02-18T03:31:15;11.30;99.90
7498;DHT22;3790;48.806;9.140;2023-02-18T03:36:19;11.20;99.90
7498;DHT22;3790;48.806;9.140;2023-02-18T03:41:20;11.00;99.90
7498;DHT22;3790;48.806;9.140;2023-02-18T03:46:21;10.80;99.90
7498;DHT22;3790;48.806;9.140;2023-02-18T03:51:21;10.70;99.90
7498;DHT22;3790;48.806;9.140;2023-02-18T03:56:22;10.60;99.90
7498;DHT22;3790;48.806;9.140;2023-02-18T04:01:23;10.50;99.90
7498;DHT22;3790;48.806;9.140;2023-02-18T04:06:23;10.60;99.90
7498;DHT22;3790;48.806;9.140;2023-02-18T04:11:24;10.90;99.90
7498;DHT22;3790;48.806;9.140;2023-02-18T04:16:25;11.00;99.90
7498;DHT22;3790;48.806;9.140;2023-02-18T04:21:26;11.20;99.90
7498;DHT22;3790;48.806;9.140;2023-02-18T04:26:27;11.20;99.90
7498;DHT22;3790;48.806;9.140;2023-02-18T04:31:27;11.10;99.90
7498;DHT22;3790;48.806;9.140;2023-02-18T04:36:28;10.90;99.90
7498;DHT22;3790;48.806;9.140;2023-02-18T04:41:29;10.70;99.90
7498;DHT22;3790;48.806;9.140;2023-02-18T04:46:30;10.60;99.90
7498;DHT22;3790;48.806;9.140;2023-02-18T04:51:30;10.60;99.90
7498;DHT22;3790;48.806;9.140;2023-02-18T04:56:31;10.60;99.90
7498;DHT22;3790;48.806;9.140;2023-02-18T05:01:31;10.50;99.90
7498;DHT22;3790;48.806;9.140;2023-02-18T05:06:32;10.50;99.90
7498;DHT22;3790;48.806;9.140;2023-02-18T05:11:32;10.40;99.90
7498;DHT22;3790;48.806;9.140;2023-02-18T05:16:33;10.30;99.90
7498;DHT22;3790;48.806;9.140;2023-02-18T05:21:33;10.30;99.90
7498;DHT22;3790;48.806;9.140;2023-02-18T05:26:34;10.40;99.90
7498;DHT22;3790;48.806;9.140;2023-02-18T05:31:35;10.40;99.90
7498;DHT22;3790;48.806;9.140;2023-02-18T05:36:37;10.40;99.90
7498;DHT22;3790;48.806;9.140;2023-02-18T05:41:38;10.30;99.90
7498;DHT22;3790;48.806;9.140;2023-02-18T05:46:38;10.20;99.90
7498;DHT22;3790;48.806;9.140;2023-02-18T05:51:39;10.00;99.90
7498;DHT22;3790;48.806;9.140;2023-02-18T05:56:39;10.00;99.90
7498;DHT22;3790;48.806;9.140;2023-02-18T06:01:40;10.10;99.90
7498;DHT22;3790;48.806;9.140;2023-02-18T06:06:41;10.10;99.90
7498;DHT22;3790;48.806;9.140;2023-02-18T06:11:42;10.20;99.90
7498;DHT22;3790;48.806;9.140;2023-02-18T06:16:42;10.20;99.90
7498;DHT22;3790;48.806;9.140;2023-02-18T06:21:43;10.30;99.90
7498;DHT22;3790;48.806;9.140;2023-02-18T06:26:43;10.20;99.90
7498;DHT22;3790;48.806;9.140;2023-02-18T06:31:44;10.20;99.90
7498;DHT22;3790;48.806;9.140;2023-02-18T06:36:44;10.20;99.90
7498;DHT22;3790;48.806;9.140;2023-02-18T06:41:45;10.30;99.90
7498;DHT22;3790;48.806;9.140;2023-02-18T06:46:45;10.40;99.90
7498;DHT22;3790;48.806;9.140;2023-02-18T06:51:46;10.60;99.90
7498;DHT22;3790;48.806;9.140;2023-02-18T06:56:46;10.70;99.90
7498;DHT22;3790;48.806;9.140;2023-02-18T07:01:47;10.70;99.90
7498;DHT22;3790;48.806;9.140;2023-02-18T07:06:48;10.80;99.90
7498;DHT22;3790;48.806;9.140;2023-02-18T07:11:48;11.00;99.90
7498;DHT22;3790;48.806;9.140;2023-02-18T07:16:49;11.00;99.90
7498;DHT22;3790;48.806;9.140;2023-02-18T07:21:50;11.20;99.90
7498;DHT22;3790;48.806;9.140;2023-02-18T07:26:50;11.40;99.90
7498;DHT22;3790;48.806;9.140;2023-02-18T07:31:51;11.40;99.90
7498;DHT22;3790;48.806;9.140;2023-02-18T07:36:51;11.60;99.90
7498;DHT22;3790;48.806;9.140;2023-02-18T07:41:52;11.70;99.90
7498;DHT22;3790;48.806;9.140;2023-02-18T07:46:52;11.70;99.90
7498;DHT22;3790;48.806;9.140;2023-02-18T07:51:53;11.80;99.90
7498;DHT22;3790;48.806;9.140;2023-02-18T07:56:53;11.90;99.90
7498;DHT22;3790;48.806;9.140;2023-02-18T08:01:54;12.20;99.90
7498;DHT22;3790;48.806;9.140;2023-02-18T08:06:54;12.50;99.90
7498;DHT22;3790;48.806;9.140;2023-02-18T08:11:55;12.60;99.90
7498;DHT22;3790;48.806;9.140;2023-02-18T08:16:55;12.40;99.90
7498;DHT22;3790;48.806;9.140;2023-02-18T08:22:00;12.40;99.90
7498;DHT22;3790;48.806;9.140;2023-02-18T08:27:01;12.50;99.90
7498;DHT22;3790;48.806;9.140;2023-02-18T08:32:01;12.60;99.90
7498;DHT22;3790;48.806;9.140;2023-02-18T08:37:02;12.70;99.90
7498;DHT22;3790;48.806;9.140;2023-02-18T08:42:03;12.70;99.90
7498;DHT22;3790;48.806;9.140;2023-02-18T08:47:03;12.80;99.90
7498;DHT22;3790;48.806;9.140;2023-02-18T08:52:04;13.10;99.90
7498;DHT22;3790;48.806;9.140;2023-02-18T08:57:04;13.10;99.90
7498;DHT22;3790;48.806;9.140;2023-02-18T09:02:05;13.20;99.90
7498;DHT22;3790;48.806;9.140;2023-02-18T09:07:06;13.30;99.90
7498;DHT22;3790;48.806;9.140;2023-02-18T09:12:07;13.40;99.90
7498;DHT22;3790;48.806;9.140;2023-02-18T09:17:08;13.50;99.90
7498;DHT22;3790;48.806;9.140;2023-02-18T09:22:08;13.80;99.90
7498;DHT22;3790;48.806;9.140;2023-02-18T09:27:09;14.00;99.90
7498;DHT22;3790;48.806;9.140;2023-02-18T09:32:09;13.80;99.90
7498;DHT22;3790;48.806;9.140;2023-02-18T09:37:11;14.00;99.90
7498;DHT22;3790;48.806;9.140;2023-02-18T09:42:15;13.80;99.90
7498;DHT22;3790;48.806;9.140;2023-02-18T09:47:39;14.00;99.90
7498;DHT22;3790;48.806;9.140;2023-02-18T09:52:40;13.90;99.90
7498;DHT22;3790;48.806;9.140;2023-02-18T09:57:44;14.00;99.90
7498;DHT22;3790;48.806;9.140;2023-02-18T10:03:05;14.40;99.90
7498;DHT22;3790;48.806;9.140;2023-02-18T10:08:18;14.10;99.90
7498;DHT22;3790;48.806;9.140;2023-02-18T10:13:23;14.10;99.90
7498;DHT22;3790;48.806;9.140;2023-02-18T10:18:41;13.90;99.90
7498;DHT22;3790;48.806;9.140;2023-02-18T10:23:57;13.90;99.90
7498;DHT22;3790;48.806;9.140;2023-02-18T10:28:58;14.00;99.90
7498;DHT22;3790;48.806;9.140;2023-02-18T10:34:17;14.30;99.90
7498;DHT22;3790;48.806;9.140;2023-02-18T10:39:31;14.20;99.90
7498;DHT22;3790;48.806;9.140;2023-02-18T10:44:50;14.50;99.90
7498;DHT22;3790;48.806;9.140;2023-02-18T10:50:04;14.60;99.90
7498;DHT22;3790;48.806;9.140;2023-02-18T10:55:16;14.30;99.90
7498;DHT22;3790;48.806;9.140;2023-02-18T11:00:21;14.70;99.90
7498;DHT22;3790;48.806;9.140;2023-02-18T11:05:26;14.90;99.90
7498;DHT22;3790;48.806;9.140;2023-02-18T11:10:34;14.60;99.90
7498;DHT22;3790;48.806;9.140;2023-02-18T11:15:54;14.70;99.90
7498;DHT22;3790;48.806;9.140;2023-02-18T11:20:58;14.30;99.90
7498;DHT22;3790;48.806;9.140;2023-02-18T11:26:02;14.50;99.90
7498;DHT22;3790;48.806;9.140;2023-02-18T11:31:04;14.80;99.90
7498;DHT22;3790;48.806;9.140;2023-02-18T11:36:28;14.80;99.90
7498;DHT22;3790;48.806;9.140;2023-02-18T11:46:33;14.60;99.90
7498;DHT22;3790;48.806;9.140;2023-02-18T11:51:40;14.90;99.90
7498;DHT22;3790;48.806;9.140;2023-02-18T11:57:00;14.80;99.90
7498;DHT22;3790;48.806;9.140;2023-02-18T12:07:26;14.80;99.90
7498;DHT22;3790;48.806;9.140;2023-02-18T12:12:31;14.90;99.90
7498;DHT22;3790;48.806;9.140;2023-02-18T12:17:48;15.20;99.90
7498;DHT22;3790;48.806;9.140;2023-02-18T12:23:17;15.20;99.90
7498;DHT22;3790;48.806;9.140;2023-02-18T12:33:56;15.10;99.90
7498;DHT22;3790;48.806;9.140;2023-02-18T12:50:11;14.80;99.90
7498;DHT22;3790;48.806;9.140;2023-02-18T12:55:35;14.40;99.90
7498;DHT22;3790;48.806;9.140;2023-02-18T13:06:07;14.20;99.90
7498;DHT22;3790;48.806;9.140;2023-02-18T13:11:20;14.00;99.90
7498;DHT22;3790;48.806;9.140;2023-02-18T13:16:25;13.90;99.90
7498;DHT22;3790;48.806;9.140;2023-02-18T13:21:28;13.90;99.90
7498;DHT22;3790;48.806;9.140;2023-02-18T13:26:30;13.80;99.90
7498;DHT22;3790;48.806;9.140;2023-02-18T13:47:41;13.80;99.90
7498;DHT22;3790;48.806;9.140;2023-02-18T13:52:42;13.90;99.90
7498;DHT22;3790;48.806;9.140;2023-02-18T13:57:46;14.00;99.90
7498;DHT22;3790;48.806;9.140;2023-02-18T14:03:35;14.10;99.90
7498;DHT22;3790;48.806;9.140;2023-02-18T14:08:38;14.30;99.90
7498;DHT22;3790;48.806;9.140;2023-02-18T14:14:12;14.50;99.90
7498;DHT22;3790;48.806;9.140;2023-02-18T14:19:29;14.50;99.90
7498;DHT22;3790;48.806;9.140;2023-02-18T14:24:46;14.50;99.90
7498;DHT22;3790;48.806;9.140;2023-02-18T14:29:50;14.50;99.90
7498;DHT22;3790;48.806;9.140;2023-02-18T14:35:01;14.30;99.90
7498;DHT22;3790;48.806;9.140;2023-02-18T14:46:03;14.40;99.90
7498;DHT22;3790;48.806;9.140;2023-02-18T14:51:09;14.40;99.90
7498;DHT22;3790;48.806;9.140;2023-02-18T14:56:16;14.50;99.90
7498;DHT22;3790;48.806;9.140;2023-02-18T15:01:27;14.70;99.90
7498;DHT22;3790;48.806;9.140;2023-02-18T15:06:33;14.40;99.90
7498;DHT22;3790;48.806;9.140;2023-02-18T15:11:37;14.20;99.90
7498;DHT22;3790;48.806;9.140;2023-02-18T15:16:39;14.10;99.90
7498;DHT22;3790;48.806;9.140;2023-02-18T15:21:44;13.90;99.90
7498;DHT22;3790;48.806;9.140;2023-02-18T15:26:47;13.90;99.90
7498;DHT22;3790;48.806;9.140;2023-02-18T15:31:51;13.50;99.90
7498;DHT22;3790;48.806;9.140;2023-02-18T15:36:54;13.40;99.90
7498;DHT22;3790;48.806;9.140;2023-02-18T15:47:18;13.20;99.90
7498;DHT22;3790;48.806;9.140;2023-02-18T15:52:28;13.20;99.90
7498;DHT22;3790;48.806;9.140;2023-02-18T15:57:31;13.00;99.90
7498;DHT22;3790;48.806;9.140;2023-02-18T16:02:32;13.00;99.90
7498;DHT22;3790;48.806;9.140;2023-02-18T16:07:49;13.00;99.90
7498;DHT22;3790;48.806;9.140;2023-02-18T16:12:56;12.90;99.90
7498;DHT22;3790;48.806;9.140;2023-02-18T16:17:59;12.80;99.90
7498;DHT22;3790;48.806;9.140;2023-02-18T16:23:07;12.80;99.90
7498;DHT22;3790;48.806;9.140;2023-02-18T16:33:21;12.60;99.90
7498;DHT22;3790;48.806;9.140;2023-02-18T16:38:23;12.60;99.90
7498;DHT22;3790;48.806;9.140;2023-02-18T16:43:28;12.60;99.90
7498;DHT22;3790;48.806;9.140;2023-02-18T16:48:37;12.50;99.90
7498;DHT22;3790;48.806;9.140;2023-02-18T16:53:39;12.50;99.90
7498;DHT22;3790;48.806;9.140;2023-02-18T16:58:40;12.50;99.90
7498;DHT22;3790;48.806;9.140;2023-02-18T17:03:41;12.50;99.90
7498;DHT22;3790;48.806;9.140;2023-02-18T17:08:41;12.60;99.90
7498;DHT22;3790;48.806;9.140;2023-02-18T17:13:42;12.60;99.90
7498;DHT22;3790;48.806;9.140;2023-02-18T17:18:43;12.50;99.90
7498;DHT22;3790;48.806;9.140;2023-02-18T17:23:44;12.60;99.90
7498;DHT22;3790;48.806;9.140;2023-02-18T17:28:45;12.50;99.90
7498;DHT22;3790;48.806;9.140;2023-02-18T17:33:46;12.50;99.90
7498;DHT22;3790;48.806;9.140;2023-02-18T17:38:46;12.50;99.90
7498;DHT22;3790;48.806;9.140;2023-02-18T17:43:49;12.40;99.90
7498;DHT22;3790;48.806;9.140;2023-02-18T17:48:49;12.40;99.90
7498;DHT22;3790;48.806;9.140;2023-02-18T17:53:50;12.30;99.90
7498;DHT22;3790;48.806;9.140;2023-02-18T17:58:51;12.10;99.90
7498;DHT22;3790;48.806;9.140;2023-02-18T18:03:51;12.10;99.90
7498;DHT22;3790;48.806;9.140;2023-02-18T18:08:52;12.10;99.90
7498;DHT22;3790;48.806;9.140;2023-02-18T18:13:52;12.10;99.90
7498;DHT22;3790;48.806;9.140;2023-02-18T18:18:53;12.00;99.90
7498;DHT22;3790;48.806;9.140;2023-02-18T18:23:54;12.00;99.90
7498;DHT22;3790;48.806;9.140;2023-02-18T18:28:56;12.00;99.90
7498;DHT22;3790;48.806;9.140;2023-02-18T18:33:57;12.00;99.90
7498;DHT22;3790;48.806;9.140;2023-02-18T18:38:57;12.00;99.90
7498;DHT22;3790;48.806;9.140;2023-02-18T18:43:58;11.90;99.90
7498;DHT22;3790;48.806;9.140;2023-02-18T18:48:58;11.80;99.90
7498;DHT22;3790;48.806;9.140;2023-02-18T18:53:59;11.70;99.90
7498;DHT22;3790;48.806;9.140;2023-02-18T18:58:59;11.60;99.90
7498;DHT22;3790;48.806;9.140;2023-02-18T19:04:00;11.60;99.90
7498;DHT22;3790;48.806;9.140;2023-02-18T19:09:03;11.60;99.90
7498;DHT22;3790;48.806;9.140;2023-02-18T19:14:04;11.50;99.90
7498;DHT22;3790;48.806;9.140;2023-02-18T19:19:04;11.40;99.90
7498;DHT22;3790;48.806;9.140;2023-02-18T19:24:05;11.40;99.90
7498;DHT22;3790;48.806;9.140;2023-02-18T19:29:05;11.40;99.90
7498;DHT22;3790;48.806;9.140;2023-02-18T19:34:06;11.40;99.90
7498;DHT22;3790;48.806;9.140;2023-02-18T19:39:06;11.40;99.90
7498;DHT22;3790;48.806;9.140;2023-02-18T19:44:07;11.30;99.90
7498;DHT22;3790;48.806;9.140;2023-02-18T19:49:07;11.30;99.90
7498;DHT22;3790;48.806;9.140;2023-02-18T19:54:08;11.30;99.90
7498;DHT22;3790;48.806;9.140;2023-02-18T19:59:08;11.20;99.90
7498;DHT22;3790;48.806;9.140;2023-02-18T20:04:09;11.10;99.90
7498;DHT22;3790;48.806;9.140;2023-02-18T20:09:10;10.80;99.90
7498;DHT22;3790;48.806;9.140;2023-02-18T20:14:10;10.70;99.90
7498;DHT22;3790;48.806;9.140;2023-02-18T20:19:11;10.60;99.90
7498;DHT22;3790;48.806;9.140;2023-02-18T20:24:12;10.50;99.90
7498;DHT22;3790;48.806;9.140;2023-02-18T20:29:13;10.50;99.90
7498;DHT22;3790;48.806;9.140;2023-02-18T20:34:14;10.50;99.90
7498;DHT22;3790;48.806;9.140;2023-02-18T20:39:18;10.50;99.90
7498;DHT22;3790;48.806;9.140;2023-02-18T20:44:19;10.50;99.90
7498;DHT22;3790;48.806;9.140;2023-02-18T20:49:21;10.40;99.90
7498;DHT22;3790;48.806;9.140;2023-02-18T20:54:21;10.30;99.90
7498;DHT22;3790;48.806;9.140;2023-02-18T20:59:22;10.00;99.90
7498;DHT22;3790;48.806;9.140;2023-02-18T21:04:23;9.90;99.90
7498;DHT22;3790;48.806;9.140;2023-02-18T21:09:24;9.80;99.90
7498;DHT22;3790;48.806;9.140;2023-02-18T21:14:24;9.80;99.90
7498;DHT22;3790;48.806;9.140;2023-02-18T21:19:25;9.90;99.90
7498;DHT22;3790;48.806;9.140;2023-02-18T21:24:25;9.90;99.90
7498;DHT22;3790;48.806;9.140;2023-02-18T21:29:26;9.90;99.90
7498;DHT22;3790;48.806;9.140;2023-02-18T21:34:29;10.00;99.90
7498;DHT22;3790;48.806;9.140;2023-02-18T21:39:30;10.10;99.90
7498;DHT22;3790;48.806;9.140;2023-02-18T21:44:30;10.10;99.90
7498;DHT22;3790;48.806;9.140;2023-02-18T21:49:31;10.00;99.90
7498;DHT22;3790;48.806;9.140;2023-02-18T21:54:34;10.00;99.90
7498;DHT22;3790;48.806;9.140;2023-02-18T21:59:39;9.80;99.90
7498;DHT22;3790;48.806;9.140;2023-02-18T22:04:40;9.40;99.90
7498;DHT22;3790;48.806;9.140;2023-02-18T22:09:40;9.30;99.90
7498;DHT22;3790;48.806;9.140;2023-02-18T22:14:41;9.20;99.90
7498;DHT22;3790;48.806;9.140;2023-02-18T22:19:42;9.10;99.90
7498;DHT22;3790;48.806;9.140;2023-02-18T22:24:42;9.10;99.90
7498;DHT22;3790;48.806;9.140;2023-02-18T22:29:43;9.00;99.90
7498;DHT22;3790;48.806;9.140;2023-02-18T22:34:46;8.90;99.90
7498;DHT22;3790;48.806;9.140;2023-02-18T22:39:48;8.80;99.90
7498;DHT22;3790;48.806;9.140;2023-02-18T22:44:48;8.80;99.90
7498;DHT22;3790;48.806;9.140;2023-02-18T22:49:49;8.90;99.90
7498;DHT22;3790;48.806;9.140;2023-02-18T22:54:49;8.90;99.90
7498;DHT22;3790;48.806;9.140;2023-02-18T22:59:50;8.80;99.90
7498;DHT22;3790;48.806;9.140;2023-02-18T23:04:50;8.70;99.90
7498;DHT22;3790;48.806;9.140;2023-02-18T23:09:51;8.70;99.90
7498;DHT22;3790;48.806;9.140;2023-02-18T23:14:51;8.70;99.90
7498;DHT22;3790;48.806;9.140;2023-02-18T23:19:53;8.80;99.90
7498;DHT22;3790;48.806;9.140;2023-02-18T23:24:53;8.90;99.90
7498;DHT22;3790;48.806;9.140;2023-02-18T23:29:54;9.20;99.90
7498;DHT22;3790;48.806;9.140;2023-02-18T23:34:55;9.30;99.90
7498;DHT22;3790;48.806;9.140;2023-02-18T23:39:56;9.30;99.90
7498;DHT22;3790;48.806;9.140;2023-02-18T23:44:56;9.20;99.90
7498;DHT22;3790;48.806;9.140;2023-02-18T23:49:57;9.20;99.90
7498;DHT22;3790;48.806;9.140;2023-02-18T23:54:57;9.20;99.90
7498;DHT22;3790;48.806;9.140;2023-02-18T23:59:58;9.20;99.90
